Time;durP1;ratioP1;P1;durP2;ratioP2;P2;SDS_P1;SDS_P2;PMS_P1;PMS_P2;Temp;Humidity;BMP_temperature;BMP_pressure;BME280_temperature;BME280_humidity;BME280_pressure;Samples;Min_cycle;Max_cycle;Signal;HPM_P1;HPM_P2
2022/01/01 00:00:37;;;;;;;118.63;87.67;;;12.30;99.90;;;;;;5075090;28;20736;-70
2022/01/01 00:03:03;;;;;;;106.10;79.43;;;12.30;99.90;;;;;;5075488;28;20477;-69
2022/01/01 00:05:30;;;;;;;98.43;72.20;;;12.30;99.90;;;;;;5075040;28;20454;-69
2022/01/01 00:07:59;;;;;;;83.20;66.63;;;12.30;99.90;;;;;;5075541;28;20458;-69
2022/01/01 00:10:27;;;;;;;71.10;55.03;;;12.30;99.90;;;;;;5075394;28;20513;-69
2022/01/01 00:12:54;;;;;;;68.70;49.30;;;12.30;99.90;;;;;;5074759;28;20461;-69
2022/01/01 00:15:21;;;;;;;57.40;43.97;;;12.30;99.90;;;;;;5075336;28;20462;-69
2022/01/01 00:17:47;;;;;;;48.40;34.60;;;12.40;99.90;;;;;;5075095;28;20516;-69
2022/01/01 00:20:15;;;;;;;37.83;31.43;;;12.40;99.90;;;;;;5075354;28;20481;-69
2022/01/01 00:22:43;;;;;;;41.93;31.57;;;12.40;99.90;;;;;;5075003;28;20485;-70
2022/01/01 00:25:13;;;;;;;35.73;28.23;;;12.40;99.90;;;;;;5074810;28;20462;-70
2022/01/01 00:27:41;;;;;;;32.90;27.13;;;12.50;99.90;;;;;;5075211;28;20488;-68
2022/01/01 00:30:09;;;;;;;31.50;24.43;;;12.50;99.90;;;;;;5075236;28;20741;-69
2022/01/01 00:32:36;;;;;;;29.00;23.53;;;12.50;99.90;;;;;;5075029;28;20918;-69
2022/01/01 00:35:04;;;;;;;30.03;22.80;;;12.50;99.90;;;;;;5074921;28;20466;-69
2022/01/01 00:37:31;;;;;;;27.10;20.73;;;12.50;99.90;;;;;;5075135;28;20454;-70
2022/01/01 00:39:57;;;;;;;19.80;16.80;;;12.50;99.90;;;;;;5075148;28;20482;-69
2022/01/01 00:42:24;;;;;;;18.83;16.00;;;12.60;99.90;;;;;;5075014;28;20462;-70
2022/01/01 00:44:52;;;;;;;22.20;15.97;;;12.60;99.90;;;;;;5074700;28;20457;-70
2022/01/01 00:47:19;;;;;;;19.50;16.20;;;12.60;99.90;;;;;;5074316;28;20486;-68
2022/01/01 00:49:46;;;;;;;22.03;17.50;;;12.60;99.90;;;;;;5075391;28;20450;-71
2022/01/01 00:52:13;;;;;;;21.60;16.47;;;12.60;99.90;;;;;;5075280;28;20533;-69
2022/01/01 00:54:41;;;;;;;20.07;16.60;;;12.60;99.90;;;;;;5075164;28;20556;-69
2022/01/01 00:57:10;;;;;;;20.03;15.63;;;12.60;99.90;;;;;;5075686;28;20472;-69
2022/01/01 00:59:36;;;;;;;44.27;32.67;;;12.60;99.90;;;;;;5075119;28;20822;-69
2022/01/01 01:02:04;;;;;;;25.47;20.63;;;12.60;99.90;;;;;;5074643;28;20462;-70
2022/01/01 01:04:31;;;;;;;23.23;17.13;;;12.70;99.90;;;;;;5074984;28;20516;-68
2022/01/01 01:06:58;;;;;;;22.80;16.60;;;12.70;99.90;;;;;;5075026;28;20918;-70
2022/01/01 01:09:24;;;;;;;19.17;15.00;;;12.70;99.90;;;;;;5074463;28;20455;-69
2022/01/01 01:11:52;;;;;;;21.90;18.50;;;12.60;99.90;;;;;;5074517;28;20454;-69
2022/01/01 01:14:23;;;;;;;17.83;15.30;;;12.60;99.90;;;;;;5074439;28;20454;-70
2022/01/01 01:16:51;;;;;;;18.07;15.80;;;12.60;99.90;;;;;;5074605;28;20446;-70
2022/01/01 01:19:20;;;;;;;19.03;14.20;;;12.60;99.90;;;;;;5073986;28;20482;-69
2022/01/01 01:21:49;;;;;;;21.20;15.13;;;12.60;99.90;;;;;;5074508;28;20458;-69
2022/01/01 01:24:16;;;;;;;21.87;15.73;;;12.60;99.90;;;;;;5074186;28;20857;-69
2022/01/01 01:26:48;;;;;;;22.73;17.83;;;12.50;99.90;;;;;;5073999;28;20918;-70
2022/01/01 01:29:15;;;;;;;21.60;17.80;;;12.50;99.90;;;;;;5074425;28;20511;-69
2022/01/01 01:31:41;;;;;;;21.77;17.70;;;12.40;99.90;;;;;;5073973;28;20914;-69
2022/01/01 01:34:08;;;;;;;24.67;18.40;;;12.40;99.90;;;;;;5073904;28;20463;-70
2022/01/01 01:36:36;;;;;;;23.33;18.70;;;12.40;99.90;;;;;;5074047;28;20477;-69
2022/01/01 01:39:03;;;;;;;22.17;18.03;;;12.30;99.90;;;;;;5073961;28;20783;-69
2022/01/01 01:41:31;;;;;;;26.07;18.27;;;12.30;99.90;;;;;;5074237;28;20790;-70
2022/01/01 01:43:59;;;;;;;24.13;18.23;;;12.30;99.90;;;;;;5074350;28;20458;-70
2022/01/01 01:46:26;;;;;;;25.87;19.43;;;12.30;99.90;;;;;;5074228;28;20464;-69
2022/01/01 01:48:54;;;;;;;25.93;18.63;;;12.30;99.90;;;;;;5077337;28;20563;-70
2022/01/01 01:51:21;;;;;;;23.80;18.20;;;12.30;99.90;;;;;;5078029;28;20462;-69
2022/01/01 01:53:52;;;;;;;25.23;18.80;;;12.30;99.90;;;;;;5077949;28;20469;-69
2022/01/01 01:56:18;;;;;;;23.27;16.63;;;12.20;99.90;;;;;;5077836;28;20454;-68
2022/01/01 01:58:48;;;;;;;21.60;16.80;;;12.20;99.90;;;;;;5077423;28;20960;-68
2022/01/01 02:03:58;;;;;;;26.23;18.00;;;12.20;99.90;;;;;;5077665;28;20507;-68
2022/01/01 02:06:25;;;;;;;23.20;18.97;;;12.20;99.90;;;;;;5077702;28;20474;-69
2022/01/01 02:08:54;;;;;;;25.83;16.70;;;12.20;99.90;;;;;;5077391;28;20957;-68
2022/01/01 02:11:22;;;;;;;28.37;16.70;;;12.20;99.90;;;;;;5077592;28;20458;-68
2022/01/01 02:14:03;;;;;;;22.57;18.10;;;12.20;99.90;;;;;;5078079;28;20545;-69
2022/01/01 02:16:49;;;;;;;21.00;16.90;;;12.20;99.90;;;;;;5078009;28;20549;-70
2022/01/01 02:19:16;;;;;;;28.40;18.30;;;12.20;99.90;;;;;;5077089;28;20478;-69
2022/01/01 02:21:44;;;;;;;28.70;18.00;;;12.20;99.90;;;;;;5077083;28;20481;-69
2022/01/01 02:24:10;;;;;;;23.87;17.00;;;12.20;99.90;;;;;;5077428;28;20466;-69
2022/01/01 02:26:37;;;;;;;22.00;16.37;;;12.20;99.90;;;;;;5077167;28;20462;-69
2022/01/01 02:29:04;;;;;;;26.10;17.63;;;12.10;99.90;;;;;;5077087;28;20450;-69
2022/01/01 02:31:33;;;;;;;23.07;17.30;;;12.10;99.90;;;;;;5077150;28;20883;-69
2022/01/01 02:34:05;;;;;;;22.20;17.23;;;12.10;99.90;;;;;;5077732;28;20481;-69
2022/01/01 02:36:33;;;;;;;25.90;17.80;;;12.10;99.90;;;;;;5077579;28;20447;-69
2022/01/01 02:39:02;;;;;;;25.77;17.87;;;12.20;99.90;;;;;;5077244;28;20497;-67
2022/01/01 02:41:29;;;;;;;25.63;17.77;;;12.10;99.90;;;;;;5077389;28;20527;-69
2022/01/01 02:43:56;;;;;;;22.40;16.00;;;12.10;99.90;;;;;;5077123;28;20454;-69
2022/01/01 02:46:23;;;;;;;25.47;17.33;;;12.10;99.90;;;;;;5077187;28;20466;-69
2022/01/01 02:48:50;;;;;;;24.73;17.23;;;12.10;99.90;;;;;;5076973;28;20497;-71
2022/01/01 02:51:17;;;;;;;31.03;18.90;;;12.20;99.90;;;;;;5077436;28;20550;-70
2022/01/01 02:53:45;;;;;;;28.07;18.37;;;12.10;99.90;;;;;;5078240;28;20466;-69
2022/01/01 02:56:13;;;;;;;27.17;17.63;;;12.10;99.90;;;;;;5077416;28;20492;-70
2022/01/01 02:58:42;;;;;;;22.73;16.70;;;12.20;99.90;;;;;;5076419;28;20450;-69
2022/01/01 03:01:08;;;;;;;25.43;17.00;;;12.20;99.90;;;;;;5076806;28;20509;-68
2022/01/01 03:03:35;;;;;;;21.13;15.80;;;12.10;99.90;;;;;;5076818;28;20462;-69
2022/01/01 03:06:02;;;;;;;21.87;15.60;;;12.10;99.90;;;;;;5076790;28;20461;-69
2022/01/01 03:08:29;;;;;;;28.43;17.70;;;12.10;99.90;;;;;;5076534;28;20451;-69
2022/01/01 03:10:56;;;;;;;21.83;15.27;;;12.10;99.90;;;;;;5077059;28;20450;-69
2022/01/01 03:13:24;;;;;;;25.53;16.80;;;12.10;99.90;;;;;;5076355;28;20454;-69
2022/01/01 03:15:51;;;;;;;23.93;15.67;;;12.10;99.90;;;;;;5076643;28;20557;-69
2022/01/01 03:18:17;;;;;;;22.43;16.00;;;12.10;99.90;;;;;;5076279;28;20459;-68
2022/01/01 03:20:45;;;;;;;22.23;16.97;;;12.10;99.90;;;;;;5076128;28;20508;-70
2022/01/01 03:23:11;;;;;;;22.80;15.70;;;12.10;99.90;;;;;;5076632;28;20523;-69
2022/01/01 03:25:38;;;;;;;22.67;15.83;;;12.10;99.90;;;;;;5076382;28;20465;-69
2022/01/01 03:28:05;;;;;;;21.90;15.07;;;12.20;99.90;;;;;;5076660;28;20458;-70
2022/01/01 03:30:34;;;;;;;19.67;14.20;;;12.20;99.90;;;;;;5076472;28;20458;-69
2022/01/01 03:33:00;;;;;;;19.00;14.77;;;12.20;99.90;;;;;;5076078;28;20458;-69
2022/01/01 03:35:27;;;;;;;20.67;15.53;;;12.20;99.90;;;;;;5076316;28;20769;-69
2022/01/01 03:37:54;;;;;;;24.27;13.70;;;12.20;99.90;;;;;;5076187;28;20470;-68
2022/01/01 03:40:21;;;;;;;19.03;13.37;;;12.30;99.90;;;;;;5075775;28;20989;-68
2022/01/01 03:42:47;;;;;;;20.30;13.90;;;12.30;99.90;;;;;;5076513;28;20459;-68
2022/01/01 03:45:14;;;;;;;21.17;12.57;;;12.30;99.90;;;;;;5075741;28;20458;-69
2022/01/01 03:47:42;;;;;;;20.80;13.50;;;12.30;99.90;;;;;;5076089;28;20486;-68
2022/01/01 03:50:09;;;;;;;15.13;12.57;;;12.30;99.90;;;;;;5076153;28;20476;-70
2022/01/01 03:52:40;;;;;;;15.73;12.27;;;12.30;99.90;;;;;;5076416;28;20477;-71
2022/01/01 03:55:08;;;;;;;16.93;11.10;;;12.30;99.90;;;;;;5076773;28;20450;-70
2022/01/01 03:57:37;;;;;;;19.27;11.67;;;12.30;99.90;;;;;;5076421;28;20795;-69
2022/01/01 04:00:06;;;;;;;16.43;11.47;;;12.40;99.90;;;;;;5076454;28;20489;-69
2022/01/01 04:02:32;;;;;;;22.50;12.27;;;12.40;99.90;;;;;;5076684;28;20483;-70
2022/01/01 04:05:01;;;;;;;16.80;11.37;;;12.40;99.90;;;;;;5076690;28;20782;-70
2022/01/01 04:07:28;;;;;;;18.17;11.90;;;12.40;99.90;;;;;;5075986;28;20454;-69
2022/01/01 04:09:55;;;;;;;19.97;11.17;;;12.40;99.90;;;;;;5075919;28;20460;-70
2022/01/01 04:12:21;;;;;;;18.17;11.40;;;12.40;99.90;;;;;;5076446;28;20553;-70
2022/01/01 04:14:49;;;;;;;17.17;12.27;;;12.40;99.90;;;;;;5076581;28;20466;-69
2022/01/01 04:17:16;;;;;;;18.80;12.10;;;12.40;99.90;;;;;;5075483;28;20552;-70
2022/01/01 04:19:43;;;;;;;21.13;12.40;;;12.40;99.90;;;;;;5075668;28;20485;-68
2022/01/01 04:22:12;;;;;;;14.40;11.20;;;12.40;99.90;;;;;;5075411;28;20458;-70
2022/01/01 04:24:40;;;;;;;23.70;12.40;;;12.40;99.90;;;;;;5075233;28;20833;-70
2022/01/01 04:27:08;;;;;;;16.30;12.00;;;12.40;99.90;;;;;;5075136;28;20458;-70
2022/01/01 04:29:36;;;;;;;19.90;12.47;;;12.40;99.90;;;;;;5075380;28;20520;-70
2022/01/01 04:32:03;;;;;;;21.17;12.87;;;12.40;99.90;;;;;;5075801;28;20560;-70
2022/01/01 04:34:30;;;;;;;18.77;11.10;;;12.40;99.90;;;;;;5075356;28;20591;-69
2022/01/01 04:37:01;;;;;;;18.53;11.97;;;12.40;99.90;;;;;;5075722;28;20450;-69
2022/01/01 04:39:29;;;;;;;17.33;11.50;;;12.40;99.90;;;;;;5075863;28;20508;-69
2022/01/01 04:41:56;;;;;;;13.50;11.50;;;12.40;99.90;;;;;;5075085;28;20539;-70
2022/01/01 04:44:23;;;;;;;16.00;11.43;;;12.40;99.90;;;;;;5074995;28;20522;-70
2022/01/01 04:46:49;;;;;;;20.93;10.93;;;12.40;99.90;;;;;;5074891;28;20466;-70
2022/01/01 04:49:16;;;;;;;23.70;13.37;;;12.40;99.90;;;;;;5074548;28;20482;-70
2022/01/01 04:51:44;;;;;;;16.80;12.20;;;12.40;99.90;;;;;;5075737;28;20465;-70
2022/01/01 04:54:15;;;;;;;17.57;11.77;;;12.40;99.90;;;;;;5075561;28;20454;-70
2022/01/01 04:56:45;;;;;;;25.83;11.77;;;12.40;99.90;;;;;;5075105;28;20523;-69
2022/01/01 04:59:16;;;;;;;21.03;12.63;;;12.40;99.90;;;;;;5074981;28;20443;-69
2022/01/01 05:01:44;;;;;;;17.40;11.80;;;12.40;99.90;;;;;;5075021;28;20471;-68
2022/01/01 05:04:10;;;;;;;16.47;11.67;;;12.40;99.90;;;;;;5074875;28;20458;-70
2022/01/01 05:06:37;;;;;;;21.23;11.80;;;12.40;99.90;;;;;;5074850;28;20824;-68
2022/01/01 05:09:04;;;;;;;21.53;12.07;;;12.40;99.90;;;;;;5074686;28;20466;-69
2022/01/01 05:11:31;;;;;;;17.13;12.03;;;12.40;99.90;;;;;;5074731;28;20519;-69
2022/01/01 05:13:59;;;;;;;15.63;11.27;;;12.40;99.90;;;;;;5074905;28;20470;-69
2022/01/01 05:16:26;;;;;;;22.40;12.50;;;12.40;99.90;;;;;;5075033;28;20794;-69
2022/01/01 05:18:53;;;;;;;22.37;12.20;;;12.40;99.90;;;;;;5074935;28;20945;-68
2022/01/01 05:21:19;;;;;;;23.27;12.50;;;12.40;99.90;;;;;;5075604;28;20485;-69
2022/01/01 05:23:46;;;;;;;18.63;11.90;;;12.40;99.90;;;;;;5078715;28;20465;-69
2022/01/01 05:26:13;;;;;;;18.50;11.87;;;12.50;99.90;;;;;;5078890;28;20794;-69
2022/01/01 05:28:39;;;;;;;20.03;13.00;;;12.40;99.90;;;;;;5078987;28;20470;-69
2022/01/01 05:31:08;;;;;;;18.53;12.73;;;12.50;99.90;;;;;;5078924;28;20457;-69
2022/01/01 05:33:34;;;;;;;23.30;15.07;;;12.40;99.90;;;;;;5078815;28;20453;-68
2022/01/01 05:36:01;;;;;;;22.60;14.37;;;12.50;99.90;;;;;;5078781;28;20757;-68
2022/01/01 05:38:28;;;;;;;24.53;15.40;;;12.50;99.90;;;;;;5079048;28;20454;-69
2022/01/01 05:40:55;;;;;;;28.37;15.47;;;12.50;99.90;;;;;;5077974;28;20470;-68
2022/01/01 05:43:22;;;;;;;27.17;17.17;;;12.50;99.90;;;;;;5078748;28;20469;-68
2022/01/01 05:45:49;;;;;;;24.43;16.40;;;12.50;99.90;;;;;;5078757;28;20549;-69
2022/01/01 05:48:17;;;;;;;22.00;14.80;;;12.50;99.90;;;;;;5078282;28;20493;-69
2022/01/01 05:50:43;;;;;;;19.80;13.17;;;12.40;99.90;;;;;;5077785;28;20458;-69
2022/01/01 05:53:10;;;;;;;20.90;14.23;;;12.50;99.90;;;;;;5079216;28;20462;-69
2022/01/01 05:55:37;;;;;;;22.87;13.57;;;12.50;99.90;;;;;;5078056;28;20990;-69
2022/01/01 05:58:05;;;;;;;23.00;13.60;;;12.40;99.90;;;;;;5078178;28;20476;-69
2022/01/01 06:00:32;;;;;;;25.60;14.37;;;12.40;99.90;;;;;;5078239;28;20486;-70
2022/01/01 06:02:59;;;;;;;25.53;14.13;;;12.40;99.90;;;;;;5077823;28;20489;-68
2022/01/01 06:05:27;;;;;;;22.20;13.97;;;12.40;99.90;;;;;;5077592;28;20458;-68
2022/01/01 06:07:55;;;;;;;39.73;15.87;;;12.40;99.90;;;;;;5077503;28;20458;-69
2022/01/01 06:10:22;;;;;;;19.43;13.10;;;12.50;99.90;;;;;;5077519;28;20540;-69
2022/01/01 06:12:48;;;;;;;20.60;14.17;;;12.50;99.90;;;;;;5077530;28;20470;-69
2022/01/01 06:15:15;;;;;;;18.40;12.27;;;12.50;99.90;;;;;;5077770;28;20523;-69
2022/01/01 06:17:42;;;;;;;19.37;12.80;;;12.50;99.90;;;;;;5077457;28;20462;-69
2022/01/01 06:20:10;;;;;;;16.80;11.60;;;12.50;99.90;;;;;;5077172;28;20501;-69
2022/01/01 06:22:38;;;;;;;23.13;13.80;;;12.50;99.90;;;;;;5077494;28;20454;-69
2022/01/01 06:25:08;;;;;;;20.77;12.93;;;12.50;99.90;;;;;;5077163;28;20813;-71
2022/01/01 06:27:35;;;;;;;20.33;13.53;;;12.50;99.90;;;;;;5077079;28;20524;-69
2022/01/01 06:30:01;;;;;;;26.30;12.67;;;12.50;99.90;;;;;;5076877;28;20625;-68
2022/01/01 06:32:31;;;;;;;22.20;12.63;;;12.50;99.90;;;;;;5076136;28;20458;-68
2022/01/01 06:34:58;;;;;;;21.80;12.20;;;12.50;99.90;;;;;;5077043;28;20558;-70
2022/01/01 06:37:25;;;;;;;18.23;12.67;;;12.50;99.90;;;;;;5077178;28;20794;-68
2022/01/01 06:39:53;;;;;;;18.60;12.87;;;12.50;99.90;;;;;;5076760;28;20462;-69
2022/01/01 06:42:20;;;;;;;21.23;13.60;;;12.50;99.90;;;;;;5076951;28;20903;-69
2022/01/01 06:44:46;;;;;;;21.90;13.23;;;12.50;99.90;;;;;;5077146;28;20834;-69
2022/01/01 06:47:13;;;;;;;16.80;11.00;;;12.50;99.90;;;;;;5076817;28;20465;-69
2022/01/01 06:49:40;;;;;;;19.50;12.73;;;12.50;99.90;;;;;;5076713;28;20898;-68
2022/01/01 06:52:07;;;;;;;21.10;12.73;;;12.50;99.90;;;;;;5076757;28;20450;-70
2022/01/01 06:54:34;;;;;;;19.70;12.00;;;12.50;99.90;;;;;;5076960;28;20512;-68
2022/01/01 06:57:05;;;;;;;24.40;13.90;;;12.50;99.90;;;;;;5076665;28;20457;-69
2022/01/01 06:59:35;;;;;;;21.67;12.73;;;12.50;99.90;;;;;;5076526;28;20438;-69
2022/01/01 07:02:02;;;;;;;20.03;12.60;;;12.50;99.90;;;;;;5076809;28;20580;-69
2022/01/01 07:04:28;;;;;;;17.87;13.60;;;12.50;99.90;;;;;;5076775;28;20458;-70
2022/01/01 07:06:55;;;;;;;23.47;13.77;;;12.50;99.90;;;;;;5076604;28;20908;-69
2022/01/01 07:09:22;;;;;;;22.17;12.20;;;12.50;99.90;;;;;;5076436;28;20947;-69
2022/01/01 07:11:50;;;;;;;26.17;13.80;;;12.50;99.90;;;;;;5076346;28;20911;-68
2022/01/01 07:14:21;;;;;;;22.07;12.00;;;12.50;99.90;;;;;;5076743;28;20458;-69
2022/01/01 07:16:48;;;;;;;20.83;12.90;;;12.50;99.90;;;;;;5077022;28;20452;-69
2022/01/01 07:19:15;;;;;;;20.33;12.70;;;12.50;99.90;;;;;;5076405;28;20458;-70
2022/01/01 07:21:41;;;;;;;20.40;12.57;;;12.50;99.90;;;;;;5076134;28;20569;-69
2022/01/01 07:24:08;;;;;;;20.20;12.47;;;12.50;99.90;;;;;;5076626;28;20534;-69
2022/01/01 07:26:37;;;;;;;27.63;13.80;;;12.50;99.90;;;;;;5075905;28;20520;-69
2022/01/01 07:29:04;;;;;;;25.30;13.93;;;12.50;99.90;;;;;;5075835;28;20460;-69
2022/01/01 07:31:32;;;;;;;21.17;13.87;;;12.50;99.90;;;;;;5076157;28;20572;-69
2022/01/01 07:33:58;;;;;;;22.20;13.10;;;12.50;99.90;;;;;;5075663;28;20984;-69
2022/01/01 07:36:25;;;;;;;21.00;13.07;;;12.50;99.90;;;;;;5075859;28;20507;-68
2022/01/01 07:38:52;;;;;;;19.83;12.67;;;12.50;99.90;;;;;;5075786;28;20462;-70
2022/01/01 07:41:19;;;;;;;22.00;13.53;;;12.50;99.90;;;;;;5075601;28;20536;-68
2022/01/01 07:43:46;;;;;;;22.97;14.03;;;12.50;99.90;;;;;;5075466;28;20469;-69
2022/01/01 07:46:12;;;;;;;23.77;13.70;;;12.50;99.90;;;;;;5075534;28;20510;-69
2022/01/01 07:48:40;;;;;;;22.03;12.83;;;12.50;99.90;;;;;;5075445;28;20482;-69
2022/01/01 07:51:07;;;;;;;21.37;12.80;;;12.50;99.90;;;;;;5075584;28;20484;-69
2022/01/01 07:53:34;;;;;;;20.50;13.03;;;12.50;99.90;;;;;;5075524;28;20462;-69
2022/01/01 07:56:00;;;;;;;21.77;13.03;;;12.50;99.90;;;;;;5075550;28;20519;-69
2022/01/01 07:58:27;;;;;;;19.50;13.10;;;12.50;99.90;;;;;;5076248;28;20919;-69
2022/01/01 08:00:54;;;;;;;23.63;14.17;;;12.50;99.90;;;;;;5075320;28;20551;-69
2022/01/01 08:03:21;;;;;;;22.20;13.40;;;12.50;99.90;;;;;;5075440;28;20793;-69
2022/01/01 08:05:49;;;;;;;19.57;13.23;;;12.60;99.90;;;;;;5074975;28;20454;-69
2022/01/01 08:08:16;;;;;;;21.27;13.90;;;12.60;99.90;;;;;;5074749;28;20458;-69
2022/01/01 08:10:43;;;;;;;20.20;12.47;;;12.50;99.90;;;;;;5075643;28;20476;-69
2022/01/01 08:13:10;;;;;;;20.60;13.00;;;12.50;99.90;;;;;;5075160;28;20458;-70
2022/01/01 08:15:37;;;;;;;21.97;13.10;;;12.50;99.90;;;;;;5074823;28;20549;-69
2022/01/01 08:18:04;;;;;;;29.33;14.17;;;12.50;99.90;;;;;;5075118;28;20454;-69
2022/01/01 08:20:31;;;;;;;23.43;13.13;;;12.50;99.90;;;;;;5074580;28;20915;-70
2022/01/01 08:22:59;;;;;;;25.93;13.20;;;12.50;99.90;;;;;;5074745;28;20466;-69
2022/01/01 08:25:26;;;;;;;18.73;12.80;;;12.60;99.90;;;;;;5074849;28;20480;-69
2022/01/01 08:27:52;;;;;;;21.10;13.30;;;12.50;99.90;;;;;;5074937;28;20458;-69
2022/01/01 08:30:19;;;;;;;22.57;13.07;;;12.50;99.90;;;;;;5075098;28;20486;-68
2022/01/01 08:32:46;;;;;;;23.67;13.33;;;12.60;99.90;;;;;;5074543;28;20538;-69
2022/01/01 08:35:13;;;;;;;23.20;13.60;;;12.60;99.90;;;;;;5074933;28;20501;-70
2022/01/01 08:37:40;;;;;;;22.63;13.43;;;12.60;99.90;;;;;;5074737;28;20941;-69
2022/01/01 08:40:09;;;;;;;20.13;12.57;;;12.60;99.90;;;;;;5074877;28;20462;-69
2022/01/01 08:42:37;;;;;;;19.77;13.17;;;12.60;99.90;;;;;;5074390;28;20531;-69
2022/01/01 08:45:04;;;;;;;19.13;12.03;;;12.60;99.90;;;;;;5074933;28;20459;-69
2022/01/01 08:47:31;;;;;;;21.63;13.87;;;12.60;99.90;;;;;;5074704;28;20486;-69
2022/01/01 08:49:57;;;;;;;19.60;13.67;;;12.60;99.90;;;;;;5075305;28;20458;-69
2022/01/01 08:52:24;;;;;;;25.00;12.90;;;12.70;99.90;;;;;;5075620;28;20935;-70
2022/01/01 08:54:55;;;;;;;20.90;12.20;;;12.60;99.90;;;;;;5075163;28;20454;-69
2022/01/01 08:57:23;;;;;;;23.00;12.07;;;12.70;99.90;;;;;;5074745;28;20443;-69
2022/01/01 08:59:50;;;;;;;21.93;12.93;;;12.70;99.90;;;;;;5074786;28;20461;-70
2022/01/01 09:02:17;;;;;;;20.30;12.50;;;12.70;99.90;;;;;;5074719;28;20485;-69
2022/01/01 09:04:43;;;;;;;19.43;12.37;;;12.70;99.90;;;;;;5075325;28;20776;-69
2022/01/01 09:07:10;;;;;;;19.43;12.57;;;12.80;99.90;;;;;;5074616;28;20914;-69
2022/01/01 09:09:37;;;;;;;20.33;12.50;;;12.70;99.90;;;;;;5075026;28;20465;-69
2022/01/01 09:12:05;;;;;;;36.57;14.07;;;12.80;99.90;;;;;;5074373;28;20480;-69
2022/01/01 09:14:33;;;;;;;21.47;12.80;;;12.80;99.90;;;;;;5074187;28;20454;-69
2022/01/01 09:17:00;;;;;;;18.53;12.87;;;12.80;99.90;;;;;;5074461;28;20465;-69
2022/01/01 09:19:27;;;;;;;25.07;12.90;;;12.80;99.90;;;;;;5074026;28;20569;-69
2022/01/01 09:21:54;;;;;;;20.87;12.63;;;12.80;99.90;;;;;;5073753;28;20870;-69
2022/01/01 09:24:21;;;;;;;24.37;13.90;;;12.80;99.90;;;;;;5074743;28;20550;-70
2022/01/01 09:26:48;;;;;;;21.37;13.60;;;12.90;99.90;;;;;;5074175;28;20464;-69
2022/01/01 09:29:15;;;;;;;22.53;12.87;;;12.90;99.90;;;;;;5074540;28;20458;-69
2022/01/01 09:31:44;;;;;;;21.43;12.63;;;12.90;99.90;;;;;;5074598;28;20451;-68
2022/01/01 09:34:11;;;;;;;24.33;12.97;;;12.90;99.90;;;;;;5074640;28;20523;-70
2022/01/01 09:36:37;;;;;;;21.30;12.90;;;12.90;99.90;;;;;;5074675;28;20458;-69
2022/01/01 09:39:05;;;;;;;20.97;12.57;;;12.90;99.90;;;;;;5074518;28;20469;-69
2022/01/01 09:41:32;;;;;;;22.20;13.17;;;13.00;99.90;;;;;;5074567;28;20474;-68
2022/01/01 09:44:02;;;;;;;25.73;13.10;;;13.00;99.90;;;;;;5074737;28;20465;-69
2022/01/01 09:46:30;;;;;;;19.13;12.53;;;13.00;99.90;;;;;;5074491;28;20458;-70
2022/01/01 09:48:58;;;;;;;22.43;13.83;;;13.00;99.90;;;;;;5074161;28;20481;-70
2022/01/01 09:51:25;;;;;;;22.10;12.33;;;13.00;99.90;;;;;;5073930;28;20481;-70
2022/01/01 09:53:52;;;;;;;22.13;13.77;;;13.00;99.90;;;;;;5074233;28;20462;-68
2022/01/01 09:56:18;;;;;;;22.13;14.30;;;13.00;99.90;;;;;;5074727;28;20480;-69
2022/01/01 09:58:45;;;;;;;22.70;13.43;;;13.00;99.90;;;;;;5074946;28;20789;-68
2022/01/01 10:01:12;;;;;;;22.93;13.13;;;13.00;99.90;;;;;;5075441;28;20772;-70
2022/01/01 10:03:41;;;;;;;24.87;14.13;;;13.00;99.90;;;;;;5074518;28;20454;-70
2022/01/01 10:06:12;;;;;;;34.00;15.80;;;13.00;99.90;;;;;;5074337;28;20458;-70
2022/01/01 10:08:40;;;;;;;24.30;14.30;;;13.00;99.90;;;;;;5076025;28;20442;-68
2022/01/01 10:11:08;;;;;;;28.87;13.70;;;12.90;99.90;;;;;;5077537;28;20453;-70
2022/01/01 10:13:36;;;;;;;24.83;13.93;;;13.00;99.90;;;;;;5077498;28;20458;-69
2022/01/01 10:16:07;;;;;;;24.30;14.47;;;12.90;99.90;;;;;;5077421;28;20454;-69
2022/01/01 10:18:36;;;;;;;28.37;14.50;;;12.90;99.90;;;;;;5077255;28;20921;-69
2022/01/01 10:21:05;;;;;;;26.97;13.83;;;12.90;99.90;;;;;;5077106;28;20928;-69
2022/01/01 10:23:34;;;;;;;23.03;14.20;;;13.00;99.90;;;;;;5077250;28;20454;-69
2022/01/01 10:29:02;;;;;;;24.50;14.40;;;13.00;99.90;;;;;;5077239;28;20426;-70
2022/01/01 10:31:29;;;;;;;33.30;15.67;;;13.10;99.90;;;;;;5077291;28;20438;-71
2022/01/01 10:33:55;;;;;;;33.43;16.20;;;13.10;99.90;;;;;;5078004;28;20887;-70
2022/01/01 10:36:23;;;;;;;23.97;15.47;;;13.10;99.90;;;;;;5077228;28;20458;-70
2022/01/01 10:38:51;;;;;;;20.80;13.87;;;13.10;99.90;;;;;;5076726;28;20466;-70
2022/01/01 10:41:18;;;;;;;24.93;14.17;;;13.00;99.90;;;;;;5076492;28;20530;-70
2022/01/01 10:43:46;;;;;;;27.30;15.23;;;13.00;99.90;;;;;;5077202;28;20567;-69
2022/01/01 10:46:15;;;;;;;32.23;16.00;;;13.00;99.90;;;;;;5076888;28;20446;-69
2022/01/01 10:48:55;;;;;;;29.00;17.20;;;12.90;99.90;;;;;;5076579;28;20973;-70
2022/01/01 10:51:22;;;;;;;26.47;16.00;;;12.90;99.90;;;;;;5076932;28;20435;-70
2022/01/01 10:54:01;;;;;;;29.13;16.20;;;12.80;99.90;;;;;;5076385;28;20450;-69
2022/01/01 10:56:37;;;;;;;32.63;18.23;;;12.80;99.90;;;;;;5076651;28;20481;-69
2022/01/01 10:59:09;;;;;;;28.33;16.83;;;12.80;99.90;;;;;;5076581;28;20442;-69
2022/01/01 11:01:43;;;;;;;31.50;17.10;;;12.80;99.90;;;;;;5076433;28;20872;-69
2022/01/01 11:04:10;;;;;;;38.30;16.37;;;12.80;99.90;;;;;;5076687;28;20471;-69
2022/01/01 11:06:41;;;;;;;28.30;16.70;;;12.80;99.90;;;;;;5076345;28;20458;-70
2022/01/01 11:09:13;;;;;;;24.23;16.67;;;12.90;99.90;;;;;;5076058;28;20438;-70
2022/01/01 11:11:40;;;;;;;29.43;16.20;;;12.90;99.90;;;;;;5076492;28;20443;-69
2022/01/01 11:14:09;;;;;;;30.00;16.90;;;13.00;99.90;;;;;;5075944;28;20934;-70
2022/01/01 11:16:37;;;;;;;27.77;15.57;;;13.00;99.90;;;;;;5076132;28;20520;-69
2022/01/01 11:19:04;;;;;;;25.00;15.10;;;13.00;99.90;;;;;;5075706;28;20454;-70
2022/01/01 11:21:31;;;;;;;24.23;15.93;;;13.00;99.90;;;;;;5075981;28;20515;-69
2022/01/01 11:23:58;;;;;;;23.53;14.27;;;13.00;99.90;;;;;;5076067;28;20454;-69
2022/01/01 11:26:28;;;;;;;29.50;15.57;;;13.00;99.90;;;;;;5075978;28;20454;-69
2022/01/01 11:28:55;;;;;;;28.37;16.00;;;13.10;99.90;;;;;;5075960;28;20450;-69
2022/01/01 11:31:23;;;;;;;26.47;14.60;;;13.10;99.90;;;;;;5076675;28;20469;-69
2022/01/01 11:33:55;;;;;;;28.10;15.83;;;13.10;99.90;;;;;;5075818;28;20932;-69
2022/01/01 11:36:23;;;;;;;24.27;15.87;;;13.10;99.90;;;;;;5076067;28;20445;-70
2022/01/01 11:38:50;;;;;;;25.43;14.73;;;13.10;99.90;;;;;;5076483;28;20455;-70
2022/01/01 11:41:18;;;;;;;26.90;13.43;;;13.10;99.90;;;;;;5076479;28;20454;-70
2022/01/01 11:43:47;;;;;;;29.10;16.37;;;13.20;99.90;;;;;;5075215;28;20484;-69
2022/01/01 11:46:15;;;;;;;26.20;15.37;;;13.20;99.90;;;;;;5076040;28;20458;-70
2022/01/01 11:48:54;;;;;;;27.63;14.43;;;13.20;99.90;;;;;;5075862;28;20482;-69
2022/01/01 11:51:32;;;;;;;23.80;14.47;;;13.30;99.90;;;;;;5075877;28;20438;-70
2022/01/01 11:54:19;;;;;;;21.03;13.73;;;13.20;99.90;;;;;;5076303;28;20453;-69
2022/01/01 11:57:05;;;;;;;25.40;14.60;;;13.30;99.90;;;;;;5075360;28;20905;-68
2022/01/01 11:59:52;;;;;;;18.57;12.10;;;13.30;99.90;;;;;;5075537;28;20780;-70
2022/01/01 12:02:49;;;;;;;22.17;13.30;;;13.30;99.90;;;;;;5074580;28;20801;-69
2022/01/01 12:05:22;;;;;;;25.00;14.20;;;13.40;99.90;;;;;;5075445;28;20834;-69
2022/01/01 12:07:54;;;;;;;22.07;13.00;;;13.40;99.90;;;;;;5075245;28;20439;-70
2022/01/01 12:10:23;;;;;;;23.93;13.87;;;13.40;99.90;;;;;;5075408;28;20454;-69
2022/01/01 12:12:52;;;;;;;21.00;13.23;;;13.40;99.90;;;;;;5075132;28;20523;-70
2022/01/01 12:15:29;;;;;;;21.77;13.67;;;13.40;99.90;;;;;;5075138;28;20461;-70
2022/01/01 12:17:57;;;;;;;22.50;14.00;;;13.40;99.90;;;;;;5075926;28;20438;-69
2022/01/01 12:20:28;;;;;;;21.80;13.33;;;13.40;99.90;;;;;;5075505;28;20876;-70
2022/01/01 12:22:55;;;;;;;24.20;13.90;;;13.30;99.90;;;;;;5075709;28;20470;-71
2022/01/01 12:25:25;;;;;;;24.43;14.43;;;13.40;99.90;;;;;;5075200;28;20539;-69
2022/01/01 12:27:54;;;;;;;28.13;14.40;;;13.30;99.90;;;;;;5074539;28;20464;-70
2022/01/01 12:30:41;;;;;;;34.33;15.17;;;13.30;99.90;;;;;;5074422;28;20454;-70
2022/01/01 12:33:10;;;;;;;23.13;14.20;;;13.30;99.90;;;;;;5075037;28;20438;-69
2022/01/01 12:35:49;;;;;;;26.70;15.00;;;13.30;99.90;;;;;;5075114;28;20816;-69